Time;durP1;ratioP1;P1;durP2;ratioP2;P2;SDS_P1;SDS_P2;PMS_P1;PMS_P2;Temp;Humidity;BMP_temperature;BMP_pressure;BME280_temperature;BME280_humidity;BME280_pressure;Samples;Min_cycle;Max_cycle;Signal;HPM_P1;HPM_P2
2023/03/16 00:01:27;;;;;;;1999.90;999.90;;;0.70;99.90;;;;;;5011031;28;20640;-68
2023/03/16 00:03:54;;;;;;;1999.90;999.90;;;0.70;99.90;;;;;;5010780;28;20620;-68
2023/03/16 00:06:21;;;;;;;1999.90;999.90;;;0.60;99.90;;;;;;5012098;28;20653;-68
2023/03/16 00:08:48;;;;;;;1999.90;999.90;;;0.60;99.90;;;;;;5011397;28;20621;-68
2023/03/16 00:11:15;;;;;;;1999.90;999.90;;;0.50;99.90;;;;;;5011406;28;20684;-67
2023/03/16 00:13:42;;;;;;;1999.90;999.90;;;0.50;99.90;;;;;;5010644;28;20622;-68
2023/03/16 00:16:09;;;;;;;1999.90;999.90;;;0.50;99.90;;;;;;5011007;28;21078;-68
2023/03/16 00:18:40;;;;;;;1999.90;999.90;;;0.50;99.90;;;;;;5010605;28;21187;-69
2023/03/16 00:21:06;;;;;;;1999.90;999.90;;;0.60;99.90;;;;;;5010834;28;20624;-69
2023/03/16 00:23:35;;;;;;;1999.90;999.90;;;0.50;99.90;;;;;;5010345;28;20625;-68
2023/03/16 00:26:03;;;;;;;1999.90;999.90;;;0.50;99.90;;;;;;5010433;28;20647;-67
2023/03/16 00:28:34;;;;;;;1999.90;999.90;;;0.40;99.90;;;;;;5011003;28;20632;-68
2023/03/16 00:31:01;;;;;;;1999.90;999.90;;;0.50;99.90;;;;;;5011248;28;20630;-69
2023/03/16 00:33:28;;;;;;;1999.90;999.90;;;0.50;99.90;;;;;;5009889;28;20633;-68
2023/03/16 00:36:01;;;;;;;1999.90;999.90;;;0.50;99.90;;;;;;5011191;28;20657;-69
2023/03/16 00:38:29;;;;;;;1999.90;999.90;;;0.40;99.90;;;;;;5010250;28;20629;-69
2023/03/16 00:40:56;;;;;;;1999.90;999.90;;;0.40;99.90;;;;;;5010629;28;20632;-69
2023/03/16 00:43:26;;;;;;;1999.90;999.90;;;0.40;99.90;;;;;;5009937;28;20629;-69
2023/03/16 00:45:58;;;;;;;1999.90;999.90;;;0.40;99.90;;;;;;5010163;28;20617;-68
2023/03/16 00:48:25;;;;;;;1999.90;999.90;;;0.40;99.90;;;;;;5010200;28;20630;-66
2023/03/16 00:50:53;;;;;;;1999.90;999.90;;;0.40;99.90;;;;;;5010742;28;20629;-69
2023/03/16 00:53:22;;;;;;;1999.90;999.90;;;0.40;99.90;;;;;;5009747;28;20661;-69
2023/03/16 00:55:48;;;;;;;1999.90;999.90;;;0.50;99.90;;;;;;5011330;28;20711;-68
2023/03/16 00:58:15;;;;;;;1999.90;999.90;;;0.40;99.90;;;;;;5010049;28;20744;-69
2023/03/16 01:00:42;;;;;;;1999.90;999.90;;;0.50;99.90;;;;;;5010891;28;20630;-68
2023/03/16 01:03:09;;;;;;;1999.90;999.90;;;0.50;99.90;;;;;;5009410;28;20697;-69
2023/03/16 01:05:40;;;;;;;1999.90;999.90;;;0.50;99.90;;;;;;5010005;28;20624;-69
2023/03/16 01:08:07;;;;;;;1999.90;999.90;;;0.40;99.90;;;;;;5010367;28;20633;-69
2023/03/16 01:10:35;;;;;;;1999.90;999.90;;;0.30;99.90;;;;;;5010185;28;20632;-70
2023/03/16 01:13:02;;;;;;;1999.90;999.90;;;0.40;99.90;;;;;;5006074;28;20728;-68
2023/03/16 01:15:29;;;;;;;1999.90;999.90;;;0.40;99.90;;;;;;5009727;28;20657;-69
2023/03/16 01:17:56;;;;;;;1999.90;999.90;;;0.20;99.90;;;;;;5009342;28;20653;-69
2023/03/16 01:20:23;;;;;;;1999.90;999.90;;;0.20;99.90;;;;;;5009598;28;20626;-69
2023/03/16 01:22:50;;;;;;;1999.90;999.90;;;0.20;99.90;;;;;;5009644;28;21190;-70
2023/03/16 01:25:17;;;;;;;1999.90;999.90;;;0.10;99.90;;;;;;5009583;28;20632;-69
2023/03/16 01:27:45;;;;;;;1999.90;999.90;;;0.20;99.90;;;;;;5009245;28;20654;-69
2023/03/16 01:30:12;;;;;;;1999.90;999.90;;;0.20;99.90;;;;;;5009180;28;20637;-69
2023/03/16 01:32:40;;;;;;;1999.90;999.90;;;0.20;99.90;;;;;;5009048;28;20675;-68
2023/03/16 01:35:08;;;;;;;1999.90;999.90;;;0.30;99.90;;;;;;5009942;28;20712;-69
2023/03/16 01:37:34;;;;;;;1999.90;999.90;;;0.20;99.90;;;;;;5009096;28;20652;-69
2023/03/16 01:40:05;;;;;;;1999.90;999.90;;;0.20;99.90;;;;;;5008899;28;20633;-68
2023/03/16 01:42:32;;;;;;;1999.90;999.90;;;0.20;99.90;;;;;;5009053;28;20681;-68
2023/03/16 01:45:04;;;;;;;1999.90;999.90;;;0.30;99.90;;;;;;5008964;28;20618;-69
2023/03/16 01:47:36;;;;;;;1999.90;999.90;;;0.20;99.90;;;;;;5004451;28;21053;-69
2023/03/16 01:50:05;;;;;;;1999.90;999.90;;;0.20;99.90;;;;;;5009249;28;20641;-68
2023/03/16 01:52:35;;;;;;;1999.90;999.90;;;0.20;99.90;;;;;;5009217;28;20729;-69
2023/03/16 01:55:06;;;;;;;1999.90;999.90;;;0.30;99.90;;;;;;5008959;28;20650;-69
2023/03/16 01:57:37;;;;;;;1999.90;999.90;;;0.20;99.90;;;;;;5008465;28;20661;-69
2023/03/16 02:00:09;;;;;;;1999.90;999.90;;;0.30;99.90;;;;;;5008234;28;20629;-68
2023/03/16 02:02:39;;;;;;;1999.90;999.90;;;0.30;99.90;;;;;;5008843;28;20648;-70
2023/03/16 02:05:11;;;;;;;1999.90;999.90;;;0.20;99.90;;;;;;5009170;28;20713;-68
2023/03/16 02:07:43;;;;;;;1999.90;999.90;;;0.20;99.90;;;;;;5007636;28;20645;-68
2023/03/16 02:10:12;;;;;;;1999.90;999.90;;;0.20;99.90;;;;;;5008619;28;20736;-68
2023/03/16 02:12:39;;;;;;;1999.90;999.90;;;0.10;99.90;;;;;;5008492;28;20625;-68
2023/03/16 02:15:08;;;;;;;1999.90;999.90;;;0.10;99.90;;;;;;5008119;28;20653;-69
2023/03/16 02:17:36;;;;;;;1999.90;999.90;;;0.10;99.90;;;;;;5008993;28;20640;-69
2023/03/16 02:20:16;;;;;;;1999.90;999.90;;;0.10;99.90;;;;;;5008749;28;20614;-69
2023/03/16 02:22:46;;;;;;;1999.90;999.90;;;0.10;99.90;;;;;;5008290;28;20622;-69
2023/03/16 02:25:17;;;;;;;1999.90;999.90;;;0.20;99.90;;;;;;5008406;28;20624;-69
2023/03/16 02:27:53;;;;;;;1999.90;999.90;;;0.20;99.90;;;;;;5006409;28;20984;-69
2023/03/16 02:30:21;;;;;;;1999.90;999.90;;;0.00;99.90;;;;;;4998433;28;20625;-68
2023/03/16 02:32:51;;;;;;;1999.90;999.90;;;0.00;99.90;;;;;;5007624;28;20720;-68
2023/03/16 02:35:18;;;;;;;1999.90;999.90;;;-0.10;99.90;;;;;;5003481;28;21085;-68
2023/03/16 02:37:45;;;;;;;1999.90;999.90;;;-0.10;99.90;;;;;;5008100;28;20681;-69
2023/03/16 02:40:21;;;;;;;1999.90;999.90;;;-0.10;99.90;;;;;;5008859;28;20640;-68
2023/03/16 02:42:55;;;;;;;1999.90;999.90;;;-0.10;99.90;;;;;;5008236;28;20621;-68
2023/03/16 02:45:27;;;;;;;1999.90;999.90;;;-0.20;99.90;;;;;;5007890;28;20621;-69
2023/03/16 02:47:55;;;;;;;1999.90;999.90;;;-0.10;99.90;;;;;;5008598;28;20646;-69
2023/03/16 02:50:22;;;;;;;1999.90;999.90;;;0.00;99.90;;;;;;5008962;28;20653;-68
2023/03/16 02:52:49;;;;;;;1999.90;999.90;;;0.00;99.90;;;;;;5009256;28;20626;-69
2023/03/16 02:55:16;;;;;;;1999.90;999.90;;;-0.10;99.90;;;;;;5008490;28;20665;-69
2023/03/16 02:57:42;;;;;;;1999.90;999.90;;;-0.10;99.90;;;;;;5008754;28;20649;-68
2023/03/16 03:00:15;;;;;;;1999.90;999.90;;;-0.20;99.90;;;;;;5008781;28;20618;-68
2023/03/16 03:02:44;;;;;;;1999.90;999.90;;;-0.20;99.90;;;;;;5008233;28;20634;-69
2023/03/16 03:05:11;;;;;;;1999.90;999.90;;;-0.30;99.90;;;;;;5007930;28;20717;-69
2023/03/16 03:07:38;;;;;;;1999.90;999.90;;;-0.30;99.90;;;;;;5008351;28;20649;-70
2023/03/16 03:10:06;;;;;;;1999.90;999.90;;;-0.20;99.90;;;;;;5008639;28;20628;-68
2023/03/16 03:12:33;;;;;;;1999.90;999.90;;;-0.20;99.90;;;;;;5007888;28;20630;-68
2023/03/16 03:15:00;;;;;;;1999.90;999.90;;;-0.10;99.90;;;;;;5007452;28;21022;-69
2023/03/16 03:17:28;;;;;;;1999.90;999.90;;;-0.10;99.90;;;;;;5008102;28;21005;-69
2023/03/16 03:19:57;;;;;;;1999.90;999.90;;;-0.20;99.90;;;;;;5008542;28;20622;-69
2023/03/16 03:22:25;;;;;;;1999.90;999.90;;;-0.20;99.90;;;;;;5012021;28;20636;-67
2023/03/16 03:24:52;;;;;;;1999.90;999.90;;;-0.20;99.90;;;;;;5011883;28;20665;-69
2023/03/16 03:27:21;;;;;;;1999.90;999.90;;;-0.20;99.90;;;;;;5011588;28;20656;-69
2023/03/16 03:29:48;;;;;;;1999.90;999.90;;;-0.10;99.90;;;;;;5012053;28;21298;-69
2023/03/16 03:32:15;;;;;;;1999.90;999.90;;;-0.10;99.90;;;;;;5012274;28;20618;-68
2023/03/16 03:34:42;;;;;;;1999.90;999.90;;;-0.10;99.90;;;;;;5011326;28;20629;-67
2023/03/16 03:37:10;;;;;;;1999.90;999.90;;;0.00;99.90;;;;;;5011671;28;20657;-68
2023/03/16 03:39:38;;;;;;;1999.90;999.90;;;-0.10;99.90;;;;;;5011907;28;20636;-69
2023/03/16 03:42:06;;;;;;;1999.90;999.90;;;-0.10;99.90;;;;;;5011926;28;21190;-69
2023/03/16 03:44:33;;;;;;;1999.90;999.90;;;-0.20;99.90;;;;;;5011810;28;20629;-69
2023/03/16 03:47:00;;;;;;;1999.90;999.90;;;-0.20;99.90;;;;;;5012129;28;20641;-69
2023/03/16 03:49:27;;;;;;;1999.90;999.90;;;-0.10;99.90;;;;;;5012445;28;20629;-69
2023/03/16 03:51:55;;;;;;;1999.90;999.90;;;-0.10;99.90;;;;;;5011350;28;21242;-69
2023/03/16 03:54:23;;;;;;;1999.90;999.90;;;-0.10;99.90;;;;;;5011234;28;20633;-69
2023/03/16 03:56:51;;;;;;;1999.90;999.90;;;-0.20;99.90;;;;;;5011882;28;20685;-68
2023/03/16 03:59:18;;;;;;;1999.90;999.90;;;-0.20;99.90;;;;;;5011633;28;20717;-68
2023/03/16 04:01:45;;;;;;;1999.90;999.90;;;-0.20;99.90;;;;;;5011404;28;21439;-69
2023/03/16 04:04:12;;;;;;;1999.90;999.90;;;-0.30;99.90;;;;;;5011358;28;20854;-68
2023/03/16 04:06:40;;;;;;;1999.90;999.90;;;-0.30;99.90;;;;;;5011310;28;21417;-68
2023/03/16 04:09:07;;;;;;;1999.90;999.90;;;-0.30;99.90;;;;;;5011124;28;20610;-69
2023/03/16 04:11:35;;;;;;;1999.90;999.90;;;-0.30;99.90;;;;;;5011039;28;20629;-69
2023/03/16 04:14:02;;;;;;;1999.90;999.90;;;-0.30;99.90;;;;;;5010746;28;21062;-70
2023/03/16 04:16:30;;;;;;;1999.90;999.90;;;-0.20;99.90;;;;;;5011481;28;20676;-69
2023/03/16 04:18:57;;;;;;;1999.90;999.90;;;-0.20;99.90;;;;;;5010599;28;20626;-69
2023/03/16 04:21:24;;;;;;;1999.90;999.90;;;0.00;99.90;;;;;;5010678;28;20625;-70
2023/03/16 04:23:53;;;;;;;1999.90;999.90;;;-0.10;99.90;;;;;;5010212;28;20664;-68
2023/03/16 04:26:19;;;;;;;1999.90;999.90;;;-0.20;99.90;;;;;;5010650;28;21473;-69
2023/03/16 04:28:48;;;;;;;1999.90;999.90;;;-0.20;99.90;;;;;;5010379;28;20637;-67
2023/03/16 04:31:14;;;;;;;1999.90;999.90;;;-0.20;99.90;;;;;;5010867;28;20622;-68
2023/03/16 04:33:42;;;;;;;1999.90;999.90;;;-0.10;99.90;;;;;;5010830;28;20625;-66
2023/03/16 04:36:09;;;;;;;1999.90;999.90;;;-0.10;99.90;;;;;;5009746;28;20735;-67
2023/03/16 04:38:36;;;;;;;1999.90;999.90;;;-0.20;99.90;;;;;;5011125;28;20990;-69
2023/03/16 04:41:04;;;;;;;1999.90;999.90;;;-0.30;99.90;;;;;;5010118;28;20628;-66
2023/03/16 04:43:33;;;;;;;1999.90;999.90;;;-0.30;99.90;;;;;;5009712;28;20641;-67
2023/03/16 04:46:01;;;;;;;1999.90;999.90;;;-0.30;99.90;;;;;;5011009;28;21204;-68
2023/03/16 04:48:28;;;;;;;1999.90;999.90;;;-0.30;99.90;;;;;;5010278;28;20628;-67
2023/03/16 04:50:55;;;;;;;1999.90;999.90;;;-0.30;99.90;;;;;;5010622;28;20625;-67
2023/03/16 04:53:22;;;;;;;1999.90;999.90;;;-0.30;99.90;;;;;;5009846;28;20625;-67
2023/03/16 04:55:49;;;;;;;1999.90;999.90;;;-0.30;99.90;;;;;;5010116;28;21234;-66
2023/03/16 04:58:15;;;;;;;1999.90;999.90;;;-0.30;99.90;;;;;;5009989;28;20672;-67
2023/03/16 05:00:42;;;;;;;1999.90;999.90;;;-0.20;99.90;;;;;;5010016;28;20637;-67
2023/03/16 05:03:10;;;;;;;1999.90;999.90;;;-0.20;99.90;;;;;;5009929;28;20622;-67
2023/03/16 05:05:38;;;;;;;1999.90;999.90;;;-0.20;99.90;;;;;;5009963;28;20621;-67
2023/03/16 05:08:05;;;;;;;1999.90;999.90;;;-0.20;99.90;;;;;;5010727;28;20650;-68
2023/03/16 05:10:32;;;;;;;1999.90;999.90;;;-0.10;99.90;;;;;;5009747;28;20654;-67
2023/03/16 05:13:00;;;;;;;1999.90;999.90;;;-0.20;99.90;;;;;;5010172;28;21040;-67
2023/03/16 05:15:27;;;;;;;1999.90;999.90;;;-0.20;99.90;;;;;;5010003;28;20661;-67
2023/03/16 05:17:55;;;;;;;1999.90;999.90;;;-0.30;99.90;;;;;;5009618;28;20652;-67
2023/03/16 05:20:24;;;;;;;1999.90;999.90;;;-0.30;99.90;;;;;;5010063;28;20679;-66
2023/03/16 05:22:51;;;;;;;1999.90;999.90;;;-0.30;99.90;;;;;;5008947;28;20641;-67
2023/03/16 05:25:18;;;;;;;1999.90;999.90;;;-0.30;99.90;;;;;;5009888;28;20625;-68
2023/03/16 05:27:47;;;;;;;1999.90;999.90;;;-0.40;99.90;;;;;;5009739;28;20664;-67
2023/03/16 05:30:16;;;;;;;1999.90;999.90;;;-0.30;99.90;;;;;;5010042;28;20716;-68
2023/03/16 05:32:43;;;;;;;1999.90;999.90;;;-0.40;99.90;;;;;;5009871;28;20651;-67
2023/03/16 05:35:12;;;;;;;1999.90;999.90;;;-0.50;99.90;;;;;;5010163;28;20638;-69
2023/03/16 05:37:40;;;;;;;1999.90;999.90;;;-0.50;99.90;;;;;;5010033;28;21209;-67
2023/03/16 05:40:15;;;;;;;1999.90;999.90;;;-0.40;99.90;;;;;;5009173;28;21182;-67
2023/03/16 05:42:43;;;;;;;1999.90;999.90;;;-0.40;99.90;;;;;;5007897;28;20625;-69
2023/03/16 05:45:10;;;;;;;1999.90;999.90;;;-0.40;99.90;;;;;;5009796;28;20621;-68
2023/03/16 05:47:37;;;;;;;1999.90;999.90;;;-0.30;99.90;;;;;;5007118;28;20653;-67
2023/03/16 05:50:04;;;;;;;1999.90;999.90;;;-0.20;99.90;;;;;;5009852;28;20735;-67
2023/03/16 05:52:32;;;;;;;1999.90;999.90;;;-0.20;99.90;;;;;;5008554;28;21026;-68
2023/03/16 05:55:00;;;;;;;1999.90;999.90;;;-0.10;99.90;;;;;;5003905;28;20729;-69
2023/03/16 05:57:27;;;;;;;1999.90;999.90;;;0.00;99.90;;;;;;5010294;28;20681;-69
2023/03/16 05:59:54;;;;;;;1999.90;999.90;;;0.00;99.90;;;;;;5011762;28;20630;-69
2023/03/16 06:02:21;;;;;;;1999.90;999.90;;;0.10;99.90;;;;;;5002167;28;20637;-68
2023/03/16 06:04:48;;;;;;;1999.90;999.90;;;0.10;99.90;;;;;;5001614;28;20634;-68
2023/03/16 06:07:15;;;;;;;1999.90;999.90;;;0.20;99.90;;;;;;5004290;28;21227;-68
2023/03/16 06:09:41;;;;;;;1999.90;999.90;;;0.20;99.90;;;;;;5001210;28;20653;-68
2023/03/16 06:12:10;;;;;;;1999.90;999.90;;;0.20;99.90;;;;;;5005261;28;20630;-69
2023/03/16 06:14:37;;;;;;;1999.90;999.90;;;0.20;99.90;;;;;;5009425;28;20618;-68
2023/03/16 06:17:03;;;;;;;1999.90;999.90;;;0.30;99.90;;;;;;4992557;28;20704;-68
2023/03/16 06:19:30;;;;;;;1999.90;999.90;;;0.30;99.90;;;;;;5000862;28;20636;-68
2023/03/16 06:21:57;;;;;;;1999.90;999.90;;;0.30;99.90;;;;;;5017155;28;20637;-68
2023/03/16 06:24:24;;;;;;;1999.90;999.90;;;0.30;99.90;;;;;;5027320;28;20619;-68
2023/03/16 06:26:50;;;;;;;1999.90;999.90;;;0.30;99.90;;;;;;5028902;28;20640;-66
2023/03/16 06:29:19;;;;;;;1999.90;999.90;;;0.40;99.90;;;;;;5029912;28;20620;-68
2023/03/16 06:31:46;;;;;;;1999.90;999.90;;;0.40;99.90;;;;;;5016223;28;20625;-69
2023/03/16 06:34:12;;;;;;;1999.90;999.90;;;0.50;99.90;;;;;;5009483;28;20683;-69
2023/03/16 06:36:39;;;;;;;1999.90;999.90;;;0.50;99.90;;;;;;5009752;28;21052;-68
2023/03/16 06:39:06;;;;;;;1999.90;999.90;;;0.60;99.90;;;;;;5009417;28;20665;-69
2023/03/16 06:41:34;;;;;;;1999.90;999.90;;;0.70;99.90;;;;;;4994554;28;20664;-68
2023/03/16 06:44:01;;;;;;;1999.90;999.90;;;0.70;99.90;;;;;;5009574;28;21170;-69
2023/03/16 06:46:31;;;;;;;1999.90;999.90;;;0.80;99.90;;;;;;5009325;28;20646;-69
2023/03/16 06:48:59;;;;;;;1999.90;999.90;;;0.80;99.90;;;;;;5018297;28;20719;-68
2023/03/16 06:51:26;;;;;;;1999.90;999.90;;;0.90;99.90;;;;;;5029171;28;20625;-68
2023/03/16 06:53:53;;;;;;;1999.90;999.90;;;0.90;99.90;;;;;;5029205;28;20605;-68
2023/03/16 06:56:20;;;;;;;1999.90;999.90;;;1.00;99.90;;;;;;5015872;28;21506;-68
2023/03/16 06:58:47;;;;;;;1999.90;999.90;;;1.00;99.90;;;;;;5013868;28;20627;-68
2023/03/16 07:01:14;;;;;;;1999.90;999.90;;;1.10;99.90;;;;;;5013888;28;20605;-68
2023/03/16 07:03:42;;;;;;;1999.90;999.90;;;1.20;99.90;;;;;;5013386;28;20619;-67
2023/03/16 07:06:08;;;;;;;1999.90;999.90;;;1.30;99.90;;;;;;5014901;28;20668;-67
2023/03/16 07:08:35;;;;;;;1999.90;999.90;;;1.40;99.90;;;;;;5031567;28;20621;-68
2023/03/16 07:11:02;;;;;;;1999.90;999.90;;;1.50;99.90;;;;;;5033455;28;20604;-67
2023/03/16 07:13:29;;;;;;;1999.90;999.90;;;1.60;99.90;;;;;;5032895;28;20612;-68
2023/03/16 07:15:56;;;;;;;1999.90;999.90;;;1.70;99.90;;;;;;5021716;28;20648;-66
2023/03/16 07:18:24;;;;;;;1999.90;999.90;;;1.70;99.90;;;;;;5013352;28;20609;-68
2023/03/16 07:20:53;;;;;;;1999.90;999.90;;;1.80;99.90;;;;;;5013384;28;20935;-68
2023/03/16 07:23:20;;;;;;;1999.90;999.90;;;1.80;99.90;;;;;;5012899;28;20617;-67
2023/03/16 07:25:46;;;;;;;1999.90;999.90;;;1.90;99.90;;;;;;5013003;28;20621;-67
2023/03/16 07:28:13;;;;;;;1999.90;999.90;;;2.00;99.90;;;;;;5013253;28;20609;-67
2023/03/16 07:30:40;;;;;;;1999.90;999.90;;;2.10;99.90;;;;;;5013139;28;20624;-68
2023/03/16 07:33:07;;;;;;;1999.90;999.90;;;2.10;99.90;;;;;;5012574;28;20612;-68
2023/03/16 07:35:33;;;;;;;1999.90;999.90;;;2.20;99.90;;;;;;5013247;28;20996;-68
2023/03/16 07:38:01;;;;;;;1999.90;999.90;;;2.20;99.90;;;;;;5012772;28;20676;-68
2023/03/16 07:40:28;;;;;;;1999.90;999.90;;;2.30;99.90;;;;;;5013259;28;20613;-68
2023/03/16 07:42:55;;;;;;;1999.90;999.90;;;2.40;99.90;;;;;;5012658;28;21291;-68
2023/03/16 07:45:22;;;;;;;1999.90;999.90;;;2.40;99.90;;;;;;5012889;28;20621;-66
2023/03/16 07:47:49;;;;;;;1999.90;999.90;;;2.50;99.90;;;;;;5012840;28;20652;-67
2023/03/16 07:50:18;;;;;;;1999.90;999.90;;;2.60;99.90;;;;;;5012701;28;21241;-68
2023/03/16 07:52:46;;;;;;;1999.90;999.90;;;2.70;99.90;;;;;;5012415;28;20617;-67
2023/03/16 07:55:14;;;;;;;1999.90;999.90;;;2.80;99.90;;;;;;5012609;28;20641;-67
2023/03/16 07:57:46;;;;;;;1999.90;999.90;;;2.90;99.90;;;;;;5012103;28;20672;-68
2023/03/16 08:00:14;;;;;;;1999.90;999.90;;;3.10;99.90;;;;;;5012590;28;20613;-68
2023/03/16 08:02:41;;;;;;;1999.90;999.90;;;3.20;99.90;;;;;;5011714;28;20630;-67
2023/03/16 08:05:09;;;;;;;1999.90;999.90;;;3.30;99.90;;;;;;5012651;28;20617;-68
2023/03/16 08:07:36;;;;;;;1999.90;999.90;;;3.40;99.90;;;;;;5011842;28;20649;-68
2023/03/16 08:10:03;;;;;;;1999.90;999.90;;;3.50;99.90;;;;;;5012657;28;20616;-67
2023/03/16 08:12:32;;;;;;;1999.90;999.90;;;3.60;99.90;;;;;;5012237;28;20625;-68
2023/03/16 08:14:59;;;;;;;1999.90;999.90;;;3.70;99.90;;;;;;5012114;28;20683;-68
2023/03/16 08:17:26;;;;;;;1999.90;999.90;;;3.80;99.90;;;;;;5012044;28;20673;-68
2023/03/16 08:19:52;;;;;;;1999.90;999.90;;;3.90;99.90;;;;;;5012516;28;20610;-67
2023/03/16 08:22:19;;;;;;;1999.90;999.90;;;4.10;99.90;;;;;;5012512;28;20613;-67
2023/03/16 08:24:47;;;;;;;1999.90;999.90;;;4.20;99.90;;;;;;5011901;28;20621;-67
2023/03/16 08:27:14;;;;;;;1999.90;999.90;;;4.40;99.90;;;;;;5011887;28;20634;-67
2023/03/16 08:29:42;;;;;;;1999.90;999.90;;;4.50;99.90;;;;;;5011800;28;21167;-67
2023/03/16 08:32:09;;;;;;;1999.90;999.90;;;4.60;99.90;;;;;;5011932;28;20620;-67
2023/03/16 08:34:36;;;;;;;1999.90;999.90;;;4.70;99.90;;;;;;5011628;28;20639;-68
2023/03/16 08:37:03;;;;;;;1999.90;999.90;;;4.90;99.90;;;;;;5011912;28;20676;-69
2023/03/16 08:39:30;;;;;;;1999.90;999.90;;;5.10;99.90;;;;;;5011601;28;20653;-68
2023/03/16 08:41:57;;;;;;;1999.90;999.90;;;5.30;99.90;;;;;;5011796;28;20732;-68
2023/03/16 08:44:24;;;;;;;1999.90;999.90;;;5.40;99.90;;;;;;5011828;28;20960;-69
2023/03/16 08:46:53;;;;;;;1999.90;999.90;;;5.60;99.90;;;;;;5011646;28;20728;-69
2023/03/16 08:49:20;;;;;;;1999.90;999.90;;;5.70;99.90;;;;;;5010619;28;20649;-69
2023/03/16 08:51:47;;;;;;;1999.90;999.90;;;5.80;99.90;;;;;;5011471;28;20675;-68
2023/03/16 08:54:14;;;;;;;1999.90;999.90;;;6.00;99.90;;;;;;5011619;28;20613;-69
2023/03/16 08:56:42;;;;;;;1999.90;999.90;;;6.20;99.90;;;;;;5011093;28;20713;-70
2023/03/16 08:59:09;;;;;;;1999.90;999.90;;;6.40;99.90;;;;;;5011316;28;20683;-69
2023/03/16 09:01:35;;;;;;;1999.90;999.90;;;6.60;99.90;;;;;;5011252;28;20618;-69
2023/03/16 09:04:03;;;;;;;1999.90;999.90;;;6.60;99.90;;;;;;5011181;28;20620;-69
2023/03/16 09:06:31;;;;;;;1999.90;999.90;;;6.80;99.90;;;;;;5011371;28;20626;-69
2023/03/16 09:08:58;;;;;;;1999.90;999.90;;;7.10;99.90;;;;;;5011039;28;20634;-69
2023/03/16 09:11:29;;;;;;;1999.90;999.90;;;7.30;99.90;;;;;;5011391;28;20649;-69
2023/03/16 09:13:56;;;;;;;1999.90;999.90;;;7.60;99.90;;;;;;5011089;28;20622;-69
2023/03/16 09:16:24;;;;;;;1999.90;999.90;;;7.90;99.90;;;;;;5011329;28;20641;-70
2023/03/16 09:18:51;;;;;;;1999.90;999.90;;;8.60;99.90;;;;;;5010290;28;20640;-67
2023/03/16 09:21:19;;;;;;;1999.90;999.90;;;9.00;99.90;;;;;;5011318;28;20598;-67
2023/03/16 09:23:47;;;;;;;1999.90;999.90;;;9.30;99.90;;;;;;5010679;28;20633;-70
2023/03/16 09:26:14;;;;;;;1999.90;999.90;;;9.70;99.90;;;;;;5011035;28;20645;-68
2023/03/16 09:28:42;;;;;;;1999.90;999.90;;;10.20;99.90;;;;;;5011030;28;20724;-68
2023/03/16 09:31:10;;;;;;;1999.90;999.90;;;10.70;99.90;;;;;;5010991;28;21004;-68
2023/03/16 09:33:37;;;;;;;1999.90;999.90;;;10.80;99.90;;;;;;5011055;28;20636;-68
2023/03/16 09:36:04;;;;;;;1999.90;999.90;;;10.80;99.90;;;;;;5010172;28;20634;-67
2023/03/16 09:38:32;;;;;;;1999.90;999.90;;;11.50;99.90;;;;;;5010435;28;20669;-66
2023/03/16 09:41:02;;;;;;;1999.90;999.90;;;11.70;99.90;;;;;;5010193;28;20620;-67
2023/03/16 09:43:55;;;;;;;1999.90;999.90;;;11.80;99.90;;;;;;5010175;28;20622;-67
2023/03/16 09:46:27;;;;;;;1999.90;999.90;;;11.90;99.90;;;;;;5000113;28;21513;-67
2023/03/16 09:48:55;;;;;;;1999.90;999.90;;;11.90;99.90;;;;;;5009833;28;20617;-66
2023/03/16 09:51:32;;;;;;;1999.90;999.90;;;12.20;99.90;;;;;;5009951;28;20641;-67
2023/03/16 09:54:03;;;;;;;1999.90;999.90;;;12.10;99.90;;;;;;5009751;28;20625;-67
2023/03/16 09:56:34;;;;;;;1999.90;999.90;;;12.30;99.90;;;;;;5009597;28;20997;-67
2023/03/16 09:59:01;;;;;;;1999.90;999.90;;;12.80;99.90;;;;;;5008986;28;20631;-66
2023/03/16 10:01:39;;;;;;;1999.90;999.90;;;13.00;99.90;;;;;;5010074;28;21023;-67
2023/03/16 10:04:14;;;;;;;1999.90;999.90;;;13.20;99.90;;;;;;5014939;28;20996;-67
2023/03/16 10:06:50;;;;;;;1999.90;999.90;;;13.40;99.90;;;;;;5009921;28;20637;-67
2023/03/16 10:09:32;;;;;;;1999.90;999.90;;;13.70;99.90;;;;;;5008134;28;20621;-67
2023/03/16 10:12:01;;;;;;;1999.90;999.90;;;13.90;99.90;;;;;;5009909;28;20628;-67
2023/03/16 10:14:37;;;;;;;1999.90;999.90;;;14.00;99.90;;;;;;5009421;28;20628;-67
2023/03/16 10:17:11;;;;;;;1999.90;999.90;;;14.00;99.90;;;;;;5009170;28;20719;-67
2023/03/16 10:19:41;;;;;;;1999.90;999.90;;;13.80;99.90;;;;;;5006027;28;20649;-67
2023/03/16 10:22:19;;;;;;;1999.90;999.90;;;14.20;99.90;;;;;;5001347;28;20618;-67
2023/03/16 10:24:55;;;;;;;1999.90;999.90;;;14.30;99.90;;;;;;5009261;28;20614;-68
2023/03/16 10:27:28;;;;;;;1999.90;999.90;;;14.70;99.80;;;;;;5003223;28;20637;-67
2023/03/16 10:29:55;;;;;;;1999.90;999.90;;;14.80;99.50;;;;;;5009302;28;20613;-67
2023/03/16 10:32:23;;;;;;;1999.90;999.90;;;15.00;98.40;;;;;;5009047;28;21007;-67
2023/03/16 10:34:56;;;;;;;1999.90;999.90;;;15.00;97.30;;;;;;5009151;28;20633;-66
2023/03/16 10:37:25;;;;;;;1999.90;999.90;;;15.10;98.30;;;;;;5008971;28;21242;-67
2023/03/16 10:39:53;;;;;;;1999.90;999.90;;;15.00;97.60;;;;;;5009042;28;20721;-68
2023/03/16 10:42:21;;;;;;;1999.90;999.90;;;15.00;98.20;;;;;;5009396;28;21055;-67
2023/03/16 10:44:48;;;;;;;1999.90;999.90;;;15.00;97.60;;;;;;5008726;28;20626;-66
2023/03/16 10:47:21;;;;;;;1999.90;999.90;;;15.10;98.40;;;;;;5008830;28;20649;-67
2023/03/16 10:49:50;;;;;;;1999.90;999.90;;;15.70;97.80;;;;;;5009301;28;20621;-67
2023/03/16 10:52:19;;;;;;;1999.90;999.90;;;16.20;94.30;;;;;;5010348;28;20728;-67
2023/03/16 10:54:51;;;;;;;1999.90;999.90;;;16.10;93.70;;;;;;5010738;28;20641;-67
2023/03/16 10:57:25;;;;;;;1999.90;999.90;;;15.30;93.70;;;;;;5009705;28;20688;-68
2023/03/16 10:59:53;;;;;;;1999.90;999.90;;;15.40;94.30;;;;;;5009532;28;20626;-67
2023/03/16 11:02:24;;;;;;;1999.90;999.90;;;15.90;94.60;;;;;;5009333;28;20676;-69
2023/03/16 11:04:51;;;;;;;1999.90;999.90;;;16.30;93.90;;;;;;5009022;28;20688;-68
2023/03/16 11:07:22;;;;;;;1999.90;999.90;;;16.60;93.80;;;;;;5008599;28;20652;-67
2023/03/16 11:09:51;;;;;;;1999.90;999.90;;;17.10;93.30;;;;;;5008543;28;20625;-68
2023/03/16 11:12:26;;;;;;;1999.90;999.90;;;17.40;91.80;;;;;;5009403;28;20636;-67
2023/03/16 11:14:54;;;;;;;1999.90;999.90;;;17.60;91.60;;;;;;5008874;28;20621;-67
2023/03/16 11:17:27;;;;;;;1999.90;999.90;;;17.70;91.50;;;;;;5008626;28;20673;-69
2023/03/16 11:19:59;;;;;;;1999.90;999.90;;;17.90;88.70;;;;;;5008671;28;20613;-68
2023/03/16 11:22:28;;;;;;;1999.90;999.90;;;18.20;90.50;;;;;;5008721;28;20757;-67
2023/03/16 11:25:05;;;;;;;1999.90;999.90;;;18.40;86.60;;;;;;5008539;28;20617;-68
2023/03/16 11:27:42;;;;;;;1999.90;999.90;;;18.40;88.30;;;;;;5008860;28;20645;-68
2023/03/16 11:30:16;;;;;;;1999.90;999.90;;;18.30;85.30;;;;;;5003783;28;20999;-67
2023/03/16 11:32:49;;;;;;;1999.90;999.90;;;18.40;86.50;;;;;;5008518;28;20716;-68
2023/03/16 11:35:18;;;;;;;1999.90;999.90;;;18.70;86.50;;;;;;5008421;28;20638;-67
2023/03/16 11:38:09;;;;;;;1999.90;999.90;;;19.50;84.90;;;;;;5008321;28;20673;-67
2023/03/16 11:40:46;;;;;;;1999.90;999.90;;;19.70;83.10;;;;;;5009025;28;21117;-68
2023/03/16 11:43:36;;;;;;;1999.90;999.90;;;19.60;78.80;;;;;;5010674;28;20625;-67
2023/03/16 11:46:14;;;;;;;1999.90;999.90;;;18.90;79.20;;;;;;5012487;28;20692;-67
2023/03/16 11:48:45;;;;;;;1999.90;999.90;;;18.50;80.30;;;;;;5012514;28;20629;-67
2023/03/16 11:51:24;;;;;;;1999.90;999.90;;;18.60;83.80;;;;;;5010896;28;20617;-67
2023/03/16 11:53:58;;;;;;;1999.90;999.90;;;19.00;83.90;;;;;;5012022;28;20629;-67
2023/03/16 11:56:34;;;;;;;1999.90;999.90;;;19.40;82.70;;;;;;5012239;28;20647;-67
2023/03/16 11:59:21;;;;;;;1999.90;999.90;;;19.90;80.50;;;;;;5011597;28;20685;-67
2023/03/16 12:01:58;;;;;;;1999.90;999.90;;;20.20;77.30;;;;;;5009585;28;20950;-67
2023/03/16 12:04:49;;;;;;;1999.90;999.90;;;20.40;76.70;;;;;;5011913;28;20708;-67
2023/03/16 12:07:28;;;;;;;1999.90;999.90;;;20.40;74.60;;;;;;5009912;28;21437;-67
2023/03/16 12:10:10;;;;;;;1999.90;999.90;;;20.40;76.50;;;;;;5011844;28;20620;-68
2023/03/16 12:12:52;;;;;;;1999.90;999.90;;;20.90;77.40;;;;;;5011603;28;20625;-67